createdAt,value
2023-07-14T00:01:01.616Z,56.01
2023-07-14T00:02:03.650Z,55.94
2023-07-14T00:03:05.963Z,55.91
2023-07-14T00:04:07.940Z,55.82
2023-07-14T00:05:09.842Z,55.75
2023-07-14T00:06:12.197Z,55.62
2023-07-14T00:07:14.160Z,55.55
2023-07-14T00:08:16.313Z,55.52
2023-07-14T00:09:18.287Z,55.58
2023-07-14T00:10:20.312Z,55.65
2023-07-14T00:11:22.273Z,55.86
2023-07-14T00:12:24.221Z,56.08
2023-07-14T00:13:26.586Z,56.22
2023-07-14T00:14:28.562Z,56.53
2023-07-14T00:15:30.485Z,56.66
2023-07-14T00:16:32.974Z,56.73
2023-07-14T00:17:34.934Z,56.66
2023-07-14T00:18:36.962Z,56.61
2023-07-14T00:19:38.755Z,56.69
2023-07-14T00:20:40.722Z,56.60
2023-07-14T00:21:42.509Z,56.45
2023-07-14T00:22:44.499Z,56.28
2023-07-14T00:23:46.422Z,56.26
2023-07-14T00:24:48.465Z,56.10
2023-07-14T00:25:50.420Z,55.96
2023-07-14T00:26:52.378Z,55.93
2023-07-14T00:27:54.334Z,55.94
2023-07-14T00:28:56.179Z,55.89
2023-07-14T00:29:58.025Z,55.88
2023-07-14T00:31:00.083Z,55.80
2023-07-14T00:32:02.011Z,55.79
2023-07-14T00:33:03.959Z,55.68
2023-07-14T00:34:05.937Z,55.56
2023-07-14T00:35:07.913Z,55.59
2023-07-14T00:36:09.946Z,55.58
2023-07-14T00:37:11.793Z,55.33
2023-07-14T00:38:13.652Z,55.31
2023-07-14T00:39:15.700Z,55.30
2023-07-14T00:40:17.758Z,55.30
2023-07-14T00:41:19.701Z,55.26
2023-07-14T00:42:21.663Z,55.26
2023-07-14T00:43:23.612Z,55.25
2023-07-14T00:44:25.574Z,55.15
2023-07-14T00:45:27.527Z,55.11
2023-07-14T00:46:29.514Z,55.13
2023-07-14T00:47:31.568Z,55.16
2023-07-14T00:48:33.481Z,55.07
2023-07-14T00:49:35.535Z,55.08
2023-07-14T00:50:37.483Z,55.08
2023-07-14T00:51:39.392Z,55.14
2023-07-14T00:52:41.292Z,55.15
2023-07-14T00:53:43.341Z,55.18
2023-07-14T00:54:45.330Z,55.22
2023-07-14T00:55:47.247Z,55.30
2023-07-14T00:56:49.197Z,55.31
2023-07-14T00:57:51.053Z,55.31
2023-07-14T00:58:52.907Z,55.44
2023-07-14T00:59:54.866Z,55.54
2023-07-14T01:00:56.912Z,55.59
2023-07-14T01:01:58.925Z,55.76
2023-07-14T01:03:00.990Z,55.89
2023-07-14T01:04:03.050Z,55.84
2023-07-14T01:05:05.031Z,55.83
2023-07-14T01:06:07.493Z,55.90
2023-07-14T01:07:09.437Z,55.94
2023-07-14T01:08:11.284Z,56.07
2023-07-14T01:09:13.144Z,56.19
2023-07-14T01:10:15.499Z,56.22
2023-07-14T01:11:17.453Z,56.39
2023-07-14T01:12:19.305Z,56.55
2023-07-14T01:13:21.154Z,56.65
2023-07-14T01:14:23.222Z,56.79
2023-07-14T01:15:25.165Z,56.81
2023-07-14T01:16:27.211Z,56.74
2023-07-14T01:17:29.093Z,56.86
2023-07-14T01:18:31.330Z,56.91
2023-07-14T01:19:33.690Z,56.86
2023-07-14T01:20:35.740Z,56.91
2023-07-14T01:21:37.586Z,56.83
2023-07-14T01:22:39.495Z,56.67
2023-07-14T01:23:41.495Z,56.66
2023-07-14T01:24:43.340Z,56.54
2023-07-14T01:25:45.326Z,56.55
2023-07-14T01:26:47.554Z,56.54
2023-07-14T01:27:49.611Z,56.49
2023-07-14T01:28:51.477Z,56.58
2023-07-14T01:29:53.420Z,56.57
2023-07-14T01:30:55.522Z,56.63
2023-07-14T01:31:57.555Z,56.53
2023-07-14T01:32:59.523Z,52.90
2023-07-14T01:34:01.527Z,50.59
2023-07-14T01:35:03.387Z,49.44
2023-07-14T01:36:05.550Z,48.84
2023-07-14T01:37:09.068Z,48.46
2023-07-14T01:38:10.987Z,48.30
2023-07-14T01:39:12.928Z,48.10
2023-07-14T01:40:15.403Z,48.04
2023-07-14T01:41:17.471Z,48.04
2023-07-14T01:42:19.406Z,48.39
2023-07-14T01:43:21.367Z,48.36
2023-07-14T01:44:23.410Z,48.28
2023-07-14T01:45:25.270Z,48.29
2023-07-14T01:46:27.534Z,48.41
2023-07-14T01:47:29.736Z,48.55
2023-07-14T01:48:31.741Z,48.76
2023-07-14T01:49:33.992Z,48.84
2023-07-14T01:50:36.151Z,48.70
2023-07-14T01:51:38.103Z,48.76
2023-07-14T01:52:39.848Z,48.81
2023-07-14T01:53:41.799Z,48.77
2023-07-14T01:54:43.754Z,48.88
2023-07-14T01:55:45.603Z,49.01
2023-07-14T01:56:47.576Z,49.02
2023-07-14T01:57:49.913Z,49.25
2023-07-14T01:58:51.763Z,49.66
2023-07-14T01:59:53.697Z,49.48
2023-07-14T02:00:55.747Z,49.44
2023-07-14T02:01:57.629Z,49.42
2023-07-14T02:02:59.786Z,49.43
2023-07-14T02:04:01.635Z,49.48
2023-07-14T02:05:04.510Z,49.54
2023-07-14T02:06:06.456Z,49.61
2023-07-14T02:07:08.311Z,49.66
2023-07-14T02:08:10.159Z,49.80
2023-07-14T02:09:12.224Z,49.86
2023-07-14T02:10:14.273Z,49.94
2023-07-14T02:11:16.226Z,50.02
2023-07-14T02:12:18.179Z,50.16
2023-07-14T02:13:20.327Z,50.18
2023-07-14T02:14:22.186Z,50.21
2023-07-14T02:15:24.026Z,50.29
2023-07-14T02:16:26.119Z,50.29
2023-07-14T02:17:28.077Z,50.33
2023-07-14T02:18:29.985Z,51.07
2023-07-14T02:19:32.464Z,52.17
2023-07-14T02:20:34.609Z,52.76
2023-07-14T02:21:36.563Z,53.12
2023-07-14T02:22:38.350Z,53.38
2023-07-14T02:23:40.262Z,53.69
2023-07-14T02:24:42.250Z,54.00
2023-07-14T02:25:44.367Z,54.20
2023-07-14T02:26:46.533Z,54.38
2023-07-14T02:27:48.379Z,54.57
2023-07-14T02:28:50.441Z,54.78
2023-07-14T02:29:52.387Z,54.98
2023-07-14T02:30:54.408Z,55.08
2023-07-14T02:31:56.393Z,55.35
2023-07-14T02:32:58.407Z,55.52
2023-07-14T02:34:00.409Z,55.66
2023-07-14T02:35:02.355Z,55.86
2023-07-14T02:36:04.325Z,55.97
2023-07-14T02:37:06.289Z,56.14
2023-07-14T02:38:08.313Z,56.42
2023-07-14T02:39:10.265Z,56.42
2023-07-14T02:40:12.533Z,56.58
2023-07-14T02:41:14.723Z,56.69
2023-07-14T02:42:16.835Z,56.74
2023-07-14T02:43:18.700Z,56.87
2023-07-14T02:44:20.674Z,56.98
2023-07-14T02:45:22.592Z,57.08
2023-07-14T02:46:24.998Z,57.23
2023-07-14T02:47:26.930Z,57.32
2023-07-14T02:48:28.858Z,57.40
2023-07-14T02:49:30.815Z,57.51
2023-07-14T02:50:32.872Z,57.61
2023-07-14T02:51:34.718Z,57.67
2023-07-14T02:52:36.723Z,57.71
2023-07-14T02:53:38.642Z,57.81
2023-07-14T02:54:40.580Z,57.91
2023-07-14T02:55:42.525Z,58.04
2023-07-14T02:56:44.682Z,58.13
2023-07-14T02:57:46.735Z,58.20
2023-07-14T02:58:48.720Z,58.22
2023-07-14T02:59:50.750Z,58.29
2023-07-14T03:00:52.913Z,58.33
2023-07-14T03:01:54.820Z,58.37
2023-07-14T03:02:56.759Z,58.42
2023-07-14T03:03:58.749Z,58.44
2023-07-14T03:05:00.619Z,58.46
2023-07-14T03:06:02.635Z,58.49
2023-07-14T03:07:04.526Z,58.60
2023-07-14T03:08:06.365Z,58.65
2023-07-14T03:09:08.349Z,58.70
2023-07-14T03:10:10.485Z,58.73
2023-07-14T03:11:13.012Z,58.82
2023-07-14T03:12:15.203Z,58.82
2023-07-14T03:13:17.076Z,58.86
2023-07-14T03:14:19.309Z,58.89
2023-07-14T03:15:21.169Z,58.89
2023-07-14T03:16:23.261Z,58.88
2023-07-14T03:17:25.246Z,58.88
2023-07-14T03:18:27.130Z,58.92
2023-07-14T03:19:28.980Z,58.88
2023-07-14T03:20:31.024Z,58.85
2023-07-14T03:21:32.976Z,58.87
2023-07-14T03:22:34.976Z,58.86
2023-07-14T03:23:36.992Z,58.79
2023-07-14T03:24:38.834Z,58.68
2023-07-14T03:25:40.683Z,58.69
2023-07-14T03:26:42.645Z,58.64
2023-07-14T03:27:44.595Z,58.63
2023-07-14T03:28:46.544Z,58.58
2023-07-14T03:29:48.637Z,58.57
2023-07-14T03:30:51.562Z,58.49
2023-07-14T03:31:53.553Z,58.43
2023-07-14T03:32:55.534Z,58.42
2023-07-14T03:33:57.436Z,58.45
2023-07-14T03:34:59.389Z,58.39
2023-07-14T03:36:01.334Z,58.42
2023-07-14T03:37:03.299Z,58.39
2023-07-14T03:38:05.244Z,58.38
2023-07-14T03:39:07.099Z,58.36
2023-07-14T03:40:09.248Z,58.36
2023-07-14T03:41:11.473Z,58.42
2023-07-14T03:42:13.663Z,58.44
2023-07-14T03:43:15.517Z,58.47
2023-07-14T03:44:17.467Z,58.54
2023-07-14T03:45:19.420Z,58.59
2023-07-14T03:46:21.398Z,58.58
2023-07-14T03:47:23.478Z,58.61
2023-07-14T03:48:25.588Z,58.68
2023-07-14T03:49:27.538Z,58.68
2023-07-14T03:50:29.494Z,58.74
2023-07-14T03:51:31.549Z,58.81
2023-07-14T03:52:33.608Z,58.91
2023-07-14T03:53:35.661Z,58.99
2023-07-14T03:54:37.612Z,59.09
2023-07-14T03:55:39.564Z,59.15
2023-07-14T03:56:41.515Z,59.28
2023-07-14T03:58:00.765Z,59.40
2023-07-14T03:58:47.162Z,59.53
2023-07-14T03:59:49.011Z,59.63
2023-07-14T04:00:50.961Z,59.75
2023-07-14T04:01:52.906Z,59.78
2023-07-14T04:02:55.138Z,59.91
2023-07-14T04:04:00.092Z,60.08
2023-07-14T04:05:00.633Z,60.23
2023-07-14T04:06:02.791Z,60.36
2023-07-14T04:07:04.733Z,60.49
2023-07-14T04:08:06.680Z,60.59
2023-07-14T04:09:08.645Z,60.75
2023-07-14T04:10:11.113Z,60.85
2023-07-14T04:11:13.053Z,60.96
2023-07-14T04:12:15.006Z,61.12
2023-07-14T04:13:16.975Z,61.24
2023-07-14T04:14:18.908Z,61.43
2023-07-14T04:15:20.883Z,61.43
2023-07-14T04:16:22.951Z,61.59
2023-07-14T04:17:24.897Z,61.65
2023-07-14T04:18:26.929Z,61.71
2023-07-14T04:19:28.878Z,61.78
2023-07-14T04:20:30.830Z,61.89
2023-07-14T04:21:32.785Z,62.02
2023-07-14T04:22:34.807Z,62.12
2023-07-14T04:23:36.806Z,62.25
2023-07-14T04:24:38.850Z,62.38
2023-07-14T04:25:40.698Z,62.50
2023-07-14T04:26:42.750Z,62.61
2023-07-14T04:27:45.107Z,62.64
2023-07-14T04:28:46.956Z,62.73
2023-07-14T04:29:48.918Z,62.77
2023-07-14T04:30:50.861Z,62.85
2023-07-14T04:31:52.870Z,62.87
2023-07-14T04:32:54.866Z,62.93
2023-07-14T04:33:56.827Z,62.99
2023-07-14T04:34:58.669Z,63.05
2023-07-14T04:36:00.516Z,63.07
2023-07-14T04:37:02.397Z,63.10
2023-07-14T04:38:04.330Z,63.13
2023-07-14T04:39:06.183Z,63.17
2023-07-14T04:40:18.798Z,63.14
2023-07-14T04:41:12.635Z,63.09
2023-07-14T04:42:14.486Z,63.01
2023-07-14T04:43:16.439Z,62.85
2023-07-14T04:44:18.800Z,62.81
2023-07-14T04:45:20.752Z,62.68
2023-07-14T04:46:22.783Z,62.46
2023-07-14T04:47:24.801Z,62.18
2023-07-14T04:48:26.825Z,62.08
2023-07-14T04:49:28.772Z,61.98
2023-07-14T04:50:30.833Z,61.82
2023-07-14T04:51:32.777Z,61.67
2023-07-14T04:52:34.534Z,61.51
2023-07-14T04:53:36.476Z,61.45
2023-07-14T04:54:38.483Z,61.41
2023-07-14T04:55:40.281Z,61.50
2023-07-14T04:56:42.540Z,61.56
2023-07-14T04:57:44.397Z,61.69
2023-07-14T04:58:46.542Z,61.69
2023-07-14T04:59:48.397Z,61.80
2023-07-14T05:00:50.376Z,61.89
2023-07-14T05:01:52.444Z,61.97
2023-07-14T05:02:54.485Z,62.03
2023-07-14T05:03:56.540Z,62.17
2023-07-14T05:05:01.384Z,62.25
2023-07-14T05:06:02.270Z,62.56
2023-07-14T05:07:04.313Z,62.56
2023-07-14T05:08:06.186Z,62.62
2023-07-14T05:09:08.177Z,62.73
2023-07-14T05:10:11.010Z,62.76
2023-07-14T05:11:13.053Z,62.84
2023-07-14T05:12:15.026Z,62.90
2023-07-14T05:13:17.288Z,62.97
2023-07-14T05:14:19.317Z,63.00
2023-07-14T05:15:21.378Z,63.01
2023-07-14T05:16:23.576Z,63.07
2023-07-14T05:17:25.682Z,63.16
2023-07-14T05:18:27.636Z,63.21
2023-07-14T05:19:29.587Z,63.31
2023-07-14T05:20:31.542Z,63.41
2023-07-14T05:21:33.395Z,63.57
2023-07-14T05:22:35.774Z,63.68
2023-07-14T05:23:37.832Z,63.74
2023-07-14T05:24:39.763Z,63.82
2023-07-14T05:25:41.724Z,63.91
2023-07-14T05:26:44.073Z,63.92
2023-07-14T05:27:46.032Z,64.03
2023-07-14T05:28:47.985Z,64.10
2023-07-14T05:29:50.351Z,64.16
2023-07-14T05:30:52.438Z,64.19
2023-07-14T05:31:54.451Z,64.25
2023-07-14T05:32:56.332Z,64.28
2023-07-14T05:33:58.460Z,64.32
2023-07-14T05:35:00.322Z,64.32
2023-07-14T05:36:03.494Z,64.33
2023-07-14T05:37:05.447Z,64.32
2023-07-14T05:38:07.401Z,64.44
2023-07-14T05:39:09.463Z,64.53
2023-07-14T05:40:11.918Z,64.69
2023-07-14T05:41:13.969Z,64.80
2023-07-14T05:42:15.915Z,64.88
2023-07-14T05:43:17.769Z,64.98
2023-07-14T05:44:19.723Z,65.15
2023-07-14T05:45:21.672Z,65.29
2023-07-14T05:46:24.834Z,65.44
2023-07-14T05:47:27.346Z,65.62
2023-07-14T05:48:29.322Z,65.86
2023-07-14T05:49:31.330Z,66.04
2023-07-14T05:50:33.283Z,66.22
2023-07-14T05:51:35.130Z,66.34
2023-07-14T05:52:37.157Z,66.42
2023-07-14T05:53:39.134Z,66.46
2023-07-14T05:54:40.995Z,66.57
2023-07-14T05:55:42.839Z,66.60
2023-07-14T05:56:44.789Z,66.65
2023-07-14T05:57:46.645Z,66.73
2023-07-14T05:58:48.493Z,66.87
2023-07-14T05:59:50.476Z,67.00
2023-07-14T06:00:52.852Z,67.09
2023-07-14T06:01:54.802Z,67.22
2023-07-14T06:02:56.747Z,67.37
2023-07-14T06:03:58.681Z,67.50
2023-07-14T06:05:00.613Z,67.54
2023-07-14T06:06:02.564Z,67.52
2023-07-14T06:07:04.414Z,67.43
2023-07-14T06:08:06.394Z,67.39
2023-07-14T06:09:08.319Z,67.38
2023-07-14T06:10:10.374Z,67.38
2023-07-14T06:11:12.328Z,67.36
2023-07-14T06:12:14.282Z,67.26
2023-07-14T06:13:16.229Z,67.13
2023-07-14T06:14:18.180Z,67.08
2023-07-14T06:15:20.036Z,67.12
2023-07-14T06:16:22.032Z,67.17
2023-07-14T06:17:24.080Z,67.23
2023-07-14T06:18:25.995Z,67.09
2023-07-14T06:19:27.854Z,66.98
2023-07-14T06:20:32.003Z,66.86
2023-07-14T06:21:33.507Z,66.82
2023-07-14T06:22:35.564Z,66.78
2023-07-14T06:23:37.701Z,66.84
2023-07-14T06:24:39.555Z,66.95
2023-07-14T06:25:41.608Z,66.89
2023-07-14T06:26:43.558Z,66.89
2023-07-14T06:27:45.506Z,66.99
2023-07-14T06:28:47.462Z,67.19
2023-07-14T06:29:49.307Z,67.49
2023-07-14T06:30:51.294Z,67.49
2023-07-14T06:31:53.317Z,67.35
2023-07-14T06:32:55.300Z,67.27
2023-07-14T06:33:57.333Z,67.28
2023-07-14T06:34:59.454Z,67.30
2023-07-14T06:36:01.435Z,67.22
2023-07-14T06:37:03.486Z,67.10
2023-07-14T06:38:05.340Z,66.99
2023-07-14T06:39:07.405Z,66.93
2023-07-14T06:40:10.526Z,66.83
2023-07-14T06:41:12.548Z,66.64
2023-07-14T06:42:14.593Z,66.54
2023-07-14T06:43:16.530Z,66.48
2023-07-14T06:44:25.799Z,66.31
2023-07-14T06:45:22.088Z,66.40
2023-07-14T06:46:24.358Z,66.32
2023-07-14T06:47:26.306Z,66.21
2023-07-14T06:48:28.245Z,66.20
2023-07-14T06:49:30.555Z,66.51
2023-07-14T06:50:32.616Z,66.31
2023-07-14T06:51:34.920Z,66.29
2023-07-14T06:52:36.879Z,66.00
2023-07-14T06:53:38.858Z,65.85
2023-07-14T06:54:42.471Z,65.59
2023-07-14T06:55:44.587Z,65.37
2023-07-14T06:56:46.525Z,65.33
2023-07-14T06:57:48.489Z,65.32
2023-07-14T06:58:50.331Z,65.20
2023-07-14T06:59:52.387Z,65.14
2023-07-14T07:00:54.554Z,64.96
2023-07-14T07:01:57.137Z,64.90
2023-07-14T07:02:59.096Z,65.06
2023-07-14T07:04:01.021Z,65.05
2023-07-14T07:05:03.144Z,64.96
2023-07-14T07:06:05.128Z,64.94
2023-07-14T07:07:07.197Z,64.89
2023-07-14T07:08:09.027Z,64.70
2023-07-14T07:09:10.990Z,64.85
2023-07-14T07:10:13.241Z,64.85
2023-07-14T07:11:14.989Z,64.74
2023-07-14T07:12:17.039Z,64.55
2023-07-14T07:13:18.895Z,64.49
2023-07-14T07:14:20.850Z,64.37
2023-07-14T07:15:22.903Z,64.33
2023-07-14T07:16:24.862Z,64.38
2023-07-14T07:17:26.718Z,64.33
2023-07-14T07:18:28.694Z,64.25
2023-07-14T07:19:31.844Z,64.20
2023-07-14T07:20:33.796Z,64.20
2023-07-14T07:21:35.743Z,64.25
2023-07-14T07:22:37.890Z,64.16
2023-07-14T07:23:40.279Z,64.10
2023-07-14T07:24:42.531Z,64.12
2023-07-14T07:25:44.476Z,64.24
2023-07-14T07:26:46.429Z,64.18
2023-07-14T07:27:48.365Z,63.99
2023-07-14T07:28:50.229Z,63.77
2023-07-14T07:29:52.184Z,63.64
2023-07-14T07:30:54.136Z,63.54
2023-07-14T07:31:56.019Z,63.46
2023-07-14T07:32:57.865Z,63.45
2023-07-14T07:33:59.902Z,63.54
2023-07-14T07:35:01.759Z,63.52
2023-07-14T07:36:03.804Z,63.32
2023-07-14T07:37:06.162Z,63.20
2023-07-14T07:38:08.547Z,63.14
2023-07-14T07:39:11.012Z,63.13
2023-07-14T07:40:13.681Z,63.19
2023-07-14T07:41:16.136Z,63.05
2023-07-14T07:42:18.310Z,63.14
2023-07-14T07:43:20.735Z,63.12
2023-07-14T07:44:23.274Z,63.02
2023-07-14T07:45:25.286Z,62.84
2023-07-14T07:46:27.181Z,62.64
2023-07-14T07:47:29.217Z,62.68
2023-07-14T07:48:31.179Z,62.28
2023-07-14T07:49:34.165Z,62.09
2023-07-14T07:50:36.227Z,62.17
2023-07-14T07:51:38.344Z,62.18
2023-07-14T07:52:40.394Z,62.03
2023-07-14T07:53:42.591Z,61.94
2023-07-14T07:54:44.637Z,61.89
2023-07-14T07:55:46.416Z,61.97
2023-07-14T07:56:48.370Z,61.90
2023-07-14T07:57:50.331Z,61.77
2023-07-14T07:58:52.184Z,61.55
2023-07-14T07:59:54.128Z,61.36
2023-07-14T08:00:56.094Z,61.41
2023-07-14T08:01:58.103Z,61.42
2023-07-14T08:03:00.246Z,61.40
2023-07-14T08:04:02.550Z,61.23
2023-07-14T08:05:05.338Z,61.15
2023-07-14T08:06:07.645Z,58.69
2023-07-14T08:07:09.648Z,58.41
2023-07-14T08:08:11.592Z,58.28
2023-07-14T08:09:13.728Z,57.03
2023-07-14T08:10:16.322Z,58.27
2023-07-14T08:11:18.184Z,59.27
2023-07-14T08:12:20.123Z,60.37
2023-07-14T08:13:22.310Z,60.88
2023-07-14T08:14:24.225Z,60.92
2023-07-14T08:15:26.595Z,60.75
2023-07-14T08:16:28.603Z,60.75
2023-07-14T08:17:30.545Z,60.60
2023-07-14T08:18:32.557Z,60.59
2023-07-14T08:19:34.412Z,60.69
2023-07-14T08:20:36.867Z,60.60
2023-07-14T08:21:38.818Z,60.61
2023-07-14T08:22:40.694Z,60.48
2023-07-14T08:23:42.614Z,60.28
2023-07-14T08:24:44.568Z,60.15
2023-07-14T08:25:46.537Z,60.09
2023-07-14T08:26:48.584Z,60.14
2023-07-14T08:27:50.637Z,59.94
2023-07-14T08:28:52.583Z,59.98
2023-07-14T08:29:54.682Z,59.88
2023-07-14T08:30:57.232Z,59.88
2023-07-14T08:31:59.413Z,59.61
2023-07-14T08:33:01.444Z,59.51
2023-07-14T08:34:03.485Z,59.42
2023-07-14T08:35:05.324Z,59.52
2023-07-14T08:36:07.401Z,59.59
2023-07-14T08:37:09.259Z,59.63
2023-07-14T08:38:11.177Z,59.69
2023-07-14T08:39:13.960Z,59.43
2023-07-14T08:40:16.746Z,59.24
2023-07-14T08:41:18.986Z,59.41
2023-07-14T08:42:20.951Z,59.46
2023-07-14T08:43:22.799Z,59.12
2023-07-14T08:44:24.678Z,58.92
2023-07-14T08:45:26.497Z,58.73
2023-07-14T08:46:28.574Z,58.75
2023-07-14T08:47:30.542Z,58.76
2023-07-14T08:48:32.449Z,58.80
2023-07-14T08:49:34.297Z,58.96
2023-07-14T08:50:36.248Z,59.07
2023-07-14T08:51:38.199Z,58.93
2023-07-14T08:52:40.263Z,58.67
2023-07-14T08:53:42.215Z,58.45
2023-07-14T08:54:44.310Z,58.37
2023-07-14T08:55:46.644Z,58.47
2023-07-14T08:56:49.082Z,58.17
2023-07-14T08:57:50.966Z,58.29
2023-07-14T08:58:52.993Z,58.45
2023-07-14T08:59:54.944Z,58.64
2023-07-14T09:00:57.174Z,58.61
2023-07-14T09:01:59.362Z,58.66
2023-07-14T09:03:01.291Z,58.68
2023-07-14T09:04:03.382Z,58.62
2023-07-14T09:05:05.349Z,58.57
2023-07-14T09:06:07.385Z,58.44
2023-07-14T09:07:09.429Z,58.46
2023-07-14T09:08:11.437Z,58.48
2023-07-14T09:09:13.443Z,58.16
2023-07-14T09:10:15.493Z,58.07
2023-07-14T09:11:17.559Z,57.94
2023-07-14T09:12:19.507Z,57.28
2023-07-14T09:13:21.356Z,57.09
2023-07-14T09:14:23.412Z,56.92
2023-07-14T09:15:25.672Z,56.63
2023-07-14T09:16:27.812Z,56.36
2023-07-14T09:17:29.904Z,55.96
2023-07-14T09:18:31.895Z,55.65
2023-07-14T09:19:33.855Z,55.23
2023-07-14T09:20:35.742Z,55.07
2023-07-14T09:21:37.707Z,55.01
2023-07-14T09:22:39.595Z,54.97
2023-07-14T09:23:42.003Z,54.95
2023-07-14T09:24:43.963Z,54.76
2023-07-14T09:25:45.923Z,54.81
2023-07-14T09:26:47.854Z,54.84
2023-07-14T09:27:49.816Z,54.48
2023-07-14T09:28:51.766Z,54.59
2023-07-14T09:29:53.617Z,54.51
2023-07-14T09:30:55.889Z,54.96
2023-07-14T09:31:57.944Z,55.06
2023-07-14T09:32:59.864Z,54.63
2023-07-14T09:34:03.990Z,54.63
2023-07-14T09:35:06.865Z,54.18
2023-07-14T09:36:10.292Z,54.32
2023-07-14T09:37:12.232Z,54.38
2023-07-14T09:38:13.965Z,54.21
2023-07-14T09:39:15.796Z,54.33
2023-07-14T09:40:17.711Z,54.23
2023-07-14T09:41:19.538Z,53.85
2023-07-14T09:42:21.488Z,53.81
2023-07-14T09:43:23.517Z,53.89
2023-07-14T09:44:25.351Z,53.85
2023-07-14T09:45:27.322Z,53.90
2023-07-14T09:46:29.712Z,53.98
2023-07-14T09:47:31.906Z,54.08
2023-07-14T09:48:34.011Z,54.09
2023-07-14T09:49:36.348Z,53.86
2023-07-14T09:50:38.314Z,53.98
2023-07-14T09:51:40.251Z,54.22
2023-07-14T09:52:42.100Z,54.67
2023-07-14T09:53:44.084Z,54.92
2023-07-14T09:54:46.108Z,54.94
2023-07-14T09:55:49.496Z,54.82
2023-07-14T09:56:51.549Z,54.56
2023-07-14T09:58:05.448Z,54.43
2023-07-14T09:58:57.095Z,54.25
2023-07-14T09:59:59.049Z,53.93
2023-07-14T10:01:01.297Z,54.09
2023-07-14T10:02:03.163Z,54.19
2023-07-14T10:03:05.091Z,54.02
2023-07-14T10:04:07.060Z,53.90
2023-07-14T10:05:08.956Z,53.93
2023-07-14T10:06:11.185Z,53.90
2023-07-14T10:07:13.028Z,53.97
2023-07-14T10:08:14.983Z,54.27
2023-07-14T10:09:16.938Z,54.27
2023-07-14T10:10:19.088Z,54.31
2023-07-14T10:11:21.343Z,54.18
2023-07-14T10:12:23.198Z,54.37
2023-07-14T10:13:25.046Z,54.17
2023-07-14T10:14:27.103Z,54.17
2023-07-14T10:15:29.060Z,54.34
2023-07-14T10:16:31.021Z,54.53
2023-07-14T10:17:32.982Z,54.35
2023-07-14T10:18:34.964Z,54.48
2023-07-14T10:19:36.968Z,54.33
2023-07-14T10:20:38.920Z,54.35
2023-07-14T10:21:40.879Z,54.53
2023-07-14T10:22:42.686Z,54.38
2023-07-14T10:23:44.476Z,54.38
2023-07-14T10:24:46.340Z,54.04
2023-07-14T10:25:48.368Z,53.93
2023-07-14T10:26:50.851Z,53.98
2023-07-14T10:27:52.890Z,54.34
2023-07-14T10:28:56.462Z,54.14
2023-07-14T10:29:58.540Z,53.88
2023-07-14T10:31:00.515Z,53.40
2023-07-14T10:32:02.477Z,53.06
2023-07-14T10:33:04.542Z,52.84
2023-07-14T10:34:06.457Z,52.83
2023-07-14T10:35:08.298Z,52.95
2023-07-14T10:36:10.788Z,53.19
2023-07-14T10:37:12.818Z,53.37
2023-07-14T10:38:14.668Z,52.97
2023-07-14T10:39:16.620Z,52.97
2023-07-14T10:40:18.682Z,52.82
2023-07-14T10:41:21.320Z,52.27
2023-07-14T10:42:23.499Z,51.83
2023-07-14T10:43:25.451Z,51.59
2023-07-14T10:44:27.306Z,51.71
2023-07-14T10:45:29.252Z,51.58
2023-07-14T10:46:31.465Z,51.58
2023-07-14T10:47:33.504Z,51.55
2023-07-14T10:48:35.548Z,51.69
2023-07-14T10:49:37.593Z,51.41
2023-07-14T10:50:39.644Z,50.91
2023-07-14T10:51:41.614Z,50.71
2023-07-14T10:52:43.636Z,50.16
2023-07-14T10:53:45.606Z,50.22
2023-07-14T10:54:47.561Z,50.16
2023-07-14T10:55:49.527Z,50.29
2023-07-14T10:56:51.657Z,50.19
2023-07-14T10:57:53.620Z,49.97
2023-07-14T10:58:56.268Z,50.02
2023-07-14T10:59:58.331Z,49.98
2023-07-14T11:01:00.295Z,49.98
2023-07-14T11:02:02.718Z,50.38
2023-07-14T11:03:04.709Z,50.56
2023-07-14T11:04:07.205Z,50.58
2023-07-14T11:05:09.256Z,50.79
2023-07-14T11:06:11.582Z,50.41
2023-07-14T11:07:13.432Z,50.32
2023-07-14T11:08:15.387Z,50.36
2023-07-14T11:09:17.446Z,50.00
2023-07-14T11:10:19.398Z,49.78
2023-07-14T11:11:21.248Z,49.93
2023-07-14T11:12:23.196Z,49.98
2023-07-14T11:13:25.163Z,48.71
2023-07-14T11:14:27.202Z,48.11
2023-07-14T11:15:29.165Z,48.03
2023-07-14T11:16:31.138Z,48.11
2023-07-14T11:17:33.183Z,48.16
2023-07-14T11:18:35.228Z,48.20
2023-07-14T11:19:45.562Z,48.22
2023-07-14T11:20:40.892Z,47.93
2023-07-14T11:21:42.849Z,47.94
2023-07-14T11:22:44.930Z,47.98
2023-07-14T11:23:46.934Z,47.87
2023-07-14T11:24:49.088Z,47.92
2023-07-14T11:25:51.041Z,47.54
2023-07-14T11:26:52.982Z,46.73
2023-07-14T11:27:54.938Z,46.62
2023-07-14T11:28:56.790Z,46.59
2023-07-14T11:29:58.635Z,46.39
2023-07-14T11:31:00.695Z,45.84
2023-07-14T11:32:02.713Z,45.41
2023-07-14T11:33:04.656Z,45.30
2023-07-14T11:34:06.554Z,45.35
2023-07-14T11:35:08.607Z,45.22
2023-07-14T11:36:10.871Z,45.16
2023-07-14T11:37:12.721Z,45.25
2023-07-14T11:38:14.668Z,45.06
2023-07-14T11:39:16.631Z,45.08
2023-07-14T11:40:18.689Z,45.32
2023-07-14T11:41:20.733Z,45.25
2023-07-14T11:42:22.678Z,44.95
2023-07-14T11:43:24.534Z,44.95
2023-07-14T11:44:26.503Z,45.35
2023-07-14T11:45:28.440Z,45.46
2023-07-14T11:46:30.451Z,45.61
2023-07-14T11:47:32.358Z,45.69
2023-07-14T11:48:34.312Z,45.07
2023-07-14T11:49:36.217Z,45.14
2023-07-14T11:50:42.435Z,44.82
2023-07-14T11:51:41.996Z,44.59
2023-07-14T11:52:43.957Z,44.58
2023-07-14T11:53:45.909Z,44.95
2023-07-14T11:54:47.852Z,44.92
2023-07-14T11:55:49.809Z,44.35
2023-07-14T11:56:52.647Z,43.77
2023-07-14T11:57:54.837Z,43.65
2023-07-14T11:58:56.815Z,43.53
2023-07-14T11:59:58.852Z,43.62
2023-07-14T12:01:00.752Z,43.86
2023-07-14T12:02:02.660Z,44.03
2023-07-14T12:03:09.368Z,44.11
2023-07-14T12:04:08.288Z,44.20
2023-07-14T12:05:10.253Z,44.38
2023-07-14T12:06:13.016Z,44.09
2023-07-14T12:07:14.871Z,44.14
2023-07-14T12:08:16.724Z,43.68
2023-07-14T12:09:18.990Z,43.60
2023-07-14T12:10:20.936Z,43.40
2023-07-14T12:11:38.632Z,43.20
2023-07-14T12:12:26.580Z,43.10
2023-07-14T12:13:28.470Z,43.05
2023-07-14T12:14:30.393Z,42.90
2023-07-14T12:15:32.329Z,42.80
2023-07-14T12:16:34.306Z,42.95
2023-07-14T12:17:36.261Z,43.07
2023-07-14T12:18:38.298Z,43.15
2023-07-14T12:19:40.243Z,43.01
2023-07-14T12:20:42.199Z,43.01
2023-07-14T12:21:44.038Z,43.05
2023-07-14T12:22:46.025Z,42.95
2023-07-14T12:23:47.958Z,42.87
2023-07-14T12:24:49.793Z,42.77
2023-07-14T12:25:51.654Z,42.90
2023-07-14T12:26:53.634Z,43.10
2023-07-14T12:27:55.480Z,43.44
2023-07-14T12:28:57.419Z,43.92
2023-07-14T12:29:59.252Z,44.39
2023-07-14T12:31:01.316Z,45.03
2023-07-14T12:32:03.355Z,45.03
2023-07-14T12:33:05.279Z,44.92
2023-07-14T12:34:07.065Z,44.77
2023-07-14T12:35:08.913Z,44.47
2023-07-14T12:36:11.074Z,44.68
2023-07-14T12:37:13.027Z,45.22
2023-07-14T12:38:14.869Z,46.58
2023-07-14T12:39:16.724Z,46.58
2023-07-14T12:40:18.774Z,47.13
2023-07-14T12:41:21.262Z,47.73
2023-07-14T12:42:23.324Z,48.34
2023-07-14T12:43:25.293Z,48.96
2023-07-14T12:44:27.205Z,49.45
2023-07-14T12:45:29.053Z,49.98
2023-07-14T12:46:31.107Z,50.49
2023-07-14T12:47:33.106Z,51.00
2023-07-14T12:48:35.007Z,51.29
2023-07-14T12:49:37.153Z,51.62
2023-07-14T12:50:41.560Z,51.87
2023-07-14T12:51:43.529Z,52.22
2023-07-14T12:52:45.495Z,52.41
2023-07-14T12:53:47.333Z,52.53
2023-07-14T12:54:49.242Z,52.41
2023-07-14T12:55:51.147Z,52.56
2023-07-14T12:56:53.194Z,52.72
2023-07-14T12:57:55.055Z,52.90
2023-07-14T12:58:56.995Z,52.93
2023-07-14T12:59:58.952Z,53.08
2023-07-14T13:01:00.908Z,53.01
2023-07-14T13:02:02.995Z,53.01
2023-07-14T13:03:05.043Z,53.14
2023-07-14T13:04:07.113Z,53.22
2023-07-14T13:05:09.164Z,53.31
2023-07-14T13:06:11.841Z,53.30
2023-07-14T13:07:13.947Z,53.30
2023-07-14T13:08:15.805Z,53.60
2023-07-14T13:09:17.734Z,54.01
2023-07-14T13:10:19.726Z,54.39
2023-07-14T13:11:21.588Z,54.80
2023-07-14T13:12:23.505Z,55.37
2023-07-14T13:13:25.462Z,55.52
2023-07-14T13:14:27.405Z,55.79
2023-07-14T13:15:29.361Z,56.23
2023-07-14T13:16:31.582Z,56.68
2023-07-14T13:17:33.503Z,57.09
2023-07-14T13:18:35.533Z,57.35
2023-07-14T13:19:37.484Z,57.58